Time;durP1;ratioP1;P1;durP2;ratioP2;P2;SDS_P1;SDS_P2;PMS_P1;PMS_P2;Temp;Humidity;BMP_temperature;BMP_pressure;BME280_temperature;BME280_humidity;BME280_pressure;Samples;Min_cycle;Max_cycle;Signal;HPM_P1;HPM_P2
2024/02/16 00:00:16;;;;;;;5.70;3.30;;;;;;;5.51;85.86;97186.30;108789;1271;22533;-72
2024/02/16 00:03:08;;;;;;;5.80;3.20;;;;;;;5.51;85.97;97181.92;108770;1271;22534;-72
2024/02/16 00:05:39;;;;;;;5.20;3.30;;;;;;;5.51;86.07;97180.77;108714;1271;22521;-72
2024/02/16 00:08:14;;;;;;;5.90;3.30;;;;;;;5.51;85.88;97182.81;108734;1271;22529;-72
2024/02/16 00:10:45;;;;;;;6.20;3.20;;;;;;;5.46;85.82;97185.48;108833;1265;22549;-72
2024/02/16 00:13:19;;;;;;;4.40;3.00;;;;;;;5.40;85.66;97181.77;108723;1265;24278;-72
2024/02/16 00:15:52;;;;;;;7.50;3.50;;;;;;;5.30;85.73;97181.20;108630;1272;154857;-72
2024/02/16 00:18:23;;;;;;;6.00;3.70;;;;;;;5.24;85.80;97180.52;108758;1264;22649;-72
2024/02/16 00:20:55;;;;;;;5.80;3.10;;;;;;;5.17;85.68;97182.90;108756;1268;25257;-72
2024/02/16 00:23:29;;;;;;;5.30;3.20;;;;;;;5.11;85.72;97184.99;108781;1271;22581;-72
2024/02/16 00:26:07;;;;;;;6.20;3.40;;;;;;;5.13;86.36;97188.19;108720;1271;23277;-72
2024/02/16 00:28:38;;;;;;;5.40;3.40;;;;;;;5.11;86.05;97187.98;108731;1271;22523;-72
2024/02/16 00:31:09;;;;;;;5.30;2.50;;;;;;;5.13;86.39;97184.30;108684;1271;25564;-72
2024/02/16 00:33:43;;;;;;;5.70;3.10;;;;;;;5.20;86.49;97182.81;108711;1271;22591;-72
2024/02/16 00:36:14;;;;;;;4.60;2.80;;;;;;;5.16;86.23;97178.36;108661;1265;22567;-72
2024/02/16 00:38:46;;;;;;;7.20;3.30;;;;;;;4.97;85.94;97178.05;108713;1271;22554;-72
2024/02/16 00:41:22;;;;;;;6.50;3.40;;;;;;;4.74;85.94;97174.73;108694;1271;22539;-72
2024/02/16 00:43:54;;;;;;;6.40;3.10;;;;;;;4.53;86.22;97171.75;108751;1271;22615;-72
2024/02/16 00:46:25;;;;;;;6.40;3.10;;;;;;;4.50;86.89;97169.34;108663;1271;22539;-72
2024/02/16 00:48:56;;;;;;;3.50;2.80;;;;;;;4.64;88.01;97169.45;108670;1265;25596;-72
2024/02/16 00:51:29;;;;;;;5.70;3.20;;;;;;;4.94;88.79;97165.69;108676;1265;22729;-72
2024/02/16 00:54:03;;;;;;;4.50;2.70;;;;;;;5.10;88.45;97162.78;108733;1272;22552;-72
2024/02/16 00:56:35;;;;;;;6.40;2.40;;;;;;;5.02;88.54;97164.49;108693;1271;22547;-72
2024/02/16 00:59:08;;;;;;;4.40;3.00;;;;;;;5.00;88.87;97160.20;108676;1271;22521;-71
2024/02/16 01:01:40;;;;;;;6.00;3.10;;;;;;;5.11;89.18;97157.51;108728;1271;22575;-72
2024/02/16 01:04:13;;;;;;;4.10;2.30;;;;;;;5.19;89.02;97157.66;108725;1271;22683;-72
2024/02/16 01:06:46;;;;;;;5.20;1.90;;;;;;;5.19;89.29;97156.67;108713;1271;25619;-72
2024/02/16 01:09:17;;;;;;;5.60;2.90;;;;;;;5.24;89.54;97156.90;108731;1265;22543;-72
2024/02/16 01:11:50;;;;;;;6.70;3.60;;;;;;;5.21;89.18;97153.00;108731;1268;25434;-71
2024/02/16 01:14:24;;;;;;;4.10;2.80;;;;;;;5.12;88.83;97152.11;108770;1265;22535;-72
2024/02/16 01:16:55;;;;;;;8.50;4.10;;;;;;;5.08;89.02;97148.14;108705;1271;22552;-72
2024/02/16 01:19:29;;;;;;;5.00;2.90;;;;;;;5.07;88.93;97146.86;108725;1271;22561;-72
2024/02/16 01:22:00;;;;;;;6.90;3.40;;;;;;;5.07;89.28;97145.52;108795;1271;22516;-72
2024/02/16 01:24:33;;;;;;;8.10;4.10;;;;;;;5.02;89.03;97140.80;108723;1268;22594;-72
2024/02/16 01:27:05;;;;;;;6.10;2.80;;;;;;;4.98;89.08;97139.14;108730;1265;22524;-72
2024/02/16 01:29:39;;;;;;;3.50;2.30;;;;;;;4.95;89.11;97135.88;108752;1271;25408;-72
2024/02/16 01:32:13;;;;;;;6.00;3.20;;;;;;;4.97;89.35;97139.01;108696;1271;22733;-72
2024/02/16 01:34:46;;;;;;;5.90;2.70;;;;;;;4.99;89.38;97142.10;108827;1265;22545;-72
2024/02/16 01:37:21;;;;;;;8.50;4.10;;;;;;;4.97;89.36;97140.90;108737;1265;22577;-72
2024/02/16 01:39:52;;;;;;;4.90;3.20;;;;;;;4.96;89.19;97136.67;108748;1265;22531;-72
2024/02/16 01:42:24;;;;;;;6.30;3.60;;;;;;;4.93;88.99;97134.19;108774;1271;23146;-72
2024/02/16 01:44:56;;;;;;;6.80;3.70;;;;;;;4.88;88.96;97133.33;108766;1271;25416;-72
2024/02/16 01:47:31;;;;;;;5.60;3.20;;;;;;;4.86;89.08;97135.60;108771;1271;22517;-72
2024/02/16 01:50:02;;;;;;;6.70;3.40;;;;;;;4.84;89.13;97133.52;108766;1268;24190;-72
2024/02/16 01:52:36;;;;;;;5.50;3.60;;;;;;;4.88;89.31;97130.55;108767;1271;22546;-72
2024/02/16 01:55:10;;;;;;;5.60;3.60;;;;;;;4.83;89.16;97132.81;108787;1271;22559;-72
2024/02/16 01:57:43;;;;;;;7.40;3.50;;;;;;;4.80;89.30;97134.01;108727;1268;25507;-71
2024/02/16 02:00:17;;;;;;;8.20;3.90;;;;;;;4.81;89.59;97134.23;108724;1265;22583;-72
2024/02/16 02:02:50;;;;;;;7.70;4.10;;;;;;;4.87;89.77;97132.30;108780;1271;24145;-72
2024/02/16 02:05:24;;;;;;;7.60;4.40;;;;;;;4.97;89.93;97129.92;108789;1271;23668;-71
2024/02/16 02:07:56;;;;;;;7.30;4.10;;;;;;;5.09;90.09;97131.91;108739;1265;22529;-72
2024/02/16 02:10:27;;;;;;;4.90;2.80;;;;;;;5.10;89.81;97130.94;108715;1271;22546;-72
2024/02/16 02:13:01;;;;;;;6.40;3.30;;;;;;;5.19;90.24;97129.91;108769;1268;26058;-72
2024/02/16 02:15:32;;;;;;;6.20;3.00;;;;;;;5.23;89.86;97128.44;108766;1271;22532;-71
2024/02/16 02:18:03;;;;;;;9.20;4.00;;;;;;;5.20;89.99;97127.19;108747;1265;23845;-71
2024/02/16 02:20:34;;;;;;;6.20;3.60;;;;;;;5.24;90.21;97125.20;108794;1271;22544;-72
2024/02/16 02:23:05;;;;;;;6.30;3.00;;;;;;;5.33;90.14;97126.59;108742;1268;23365;-72
2024/02/16 02:25:36;;;;;;;4.00;2.70;;;;;;;5.38;89.95;97124.58;108701;1271;25537;-72
2024/02/16 02:28:14;;;;;;;6.90;3.50;;;;;;;5.40;90.16;97117.78;108717;1265;24176;-71
2024/02/16 02:30:48;;;;;;;4.10;2.70;;;;;;;5.45;90.10;97120.30;108767;1268;22525;-72
2024/02/16 02:33:19;;;;;;;6.40;3.50;;;;;;;5.47;90.12;97117.91;108715;1265;23831;-72
2024/02/16 02:35:51;;;;;;;5.40;2.80;;;;;;;5.49;89.82;97114.94;108719;1265;22541;-72
2024/02/16 02:38:22;;;;;;;6.20;3.60;;;;;;;5.51;89.90;97118.91;108745;1268;24280;-71
2024/02/16 02:40:53;;;;;;;6.30;3.60;;;;;;;5.46;89.71;97119.84;108714;1271;22527;-72
2024/02/16 02:43:24;;;;;;;6.30;3.30;;;;;;;5.44;89.84;97123.76;108755;1271;24499;-72
2024/02/16 02:45:56;;;;;;;4.30;2.50;;;;;;;5.46;89.55;97122.58;108729;1271;22523;-72
2024/02/16 02:48:29;;;;;;;7.60;3.70;;;;;;;5.47;89.62;97120.17;108745;1271;22471;-72
2024/02/16 02:51:04;;;;;;;6.30;3.60;;;;;;;5.49;89.54;97120.39;108742;1268;22531;-72
2024/02/16 02:53:38;;;;;;;5.30;3.30;;;;;;;5.47;89.48;97116.77;108767;1271;22546;-72
2024/02/16 02:56:12;;;;;;;8.20;3.10;;;;;;;5.50;89.60;97124.35;108783;1271;24777;-72
2024/02/16 02:58:44;;;;;;;4.20;2.90;;;;;;;5.48;89.41;97123.67;108723;1265;22519;-72
2024/02/16 03:01:15;;;;;;;4.30;2.70;;;;;;;5.48;89.24;97124.93;108741;1271;22514;-72
2024/02/16 03:03:48;;;;;;;6.10;3.40;;;;;;;5.51;89.38;97124.64;108766;1271;22528;-72
2024/02/16 03:06:23;;;;;;;5.10;3.40;;;;;;;5.56;89.36;97126.84;108717;1268;25492;-72
2024/02/16 03:08:54;;;;;;;5.60;3.00;;;;;;;5.58;89.20;97128.98;108687;1266;22534;-72
2024/02/16 03:11:25;;;;;;;4.90;2.90;;;;;;;5.60;89.32;97128.48;108773;1271;22528;-72
2024/02/16 03:13:56;;;;;;;3.70;2.50;;;;;;;5.59;89.15;97131.27;108712;1271;22562;-72
2024/02/16 03:16:28;;;;;;;4.40;3.00;;;;;;;5.55;88.80;97126.93;108705;1271;24284;-72
2024/02/16 03:19:04;;;;;;;4.40;2.80;;;;;;;5.53;88.86;97131.20;108704;1250;22536;-72
2024/02/16 03:21:35;;;;;;;5.00;3.10;;;;;;;5.51;88.61;97130.91;108711;1265;24255;-72
2024/02/16 03:24:07;;;;;;;6.70;3.10;;;;;;;5.45;88.45;97132.27;108762;1271;22624;-72
2024/02/16 03:26:38;;;;;;;5.80;2.90;;;;;;;5.43;88.71;97133.36;108734;1268;22686;-72
2024/02/16 03:29:12;;;;;;;6.80;2.90;;;;;;;5.47;89.00;97136.00;108758;1270;23058;-72
2024/02/16 03:31:43;;;;;;;4.50;2.90;;;;;;;5.45;88.80;97133.23;108772;1268;22548;-72
2024/02/16 03:34:16;;;;;;;4.80;2.70;;;;;;;5.48;88.79;97129.47;108718;1268;22528;-72
2024/02/16 03:36:50;;;;;;;4.90;2.90;;;;;;;5.53;88.80;97136.67;108783;1271;22613;-72
2024/02/16 03:39:21;;;;;;;4.80;2.50;;;;;;;5.53;88.59;97135.98;108758;1271;22527;-72
2024/02/16 03:41:52;;;;;;;4.30;2.60;;;;;;;5.51;88.59;97138.06;108792;1271;22523;-72
2024/02/16 03:44:23;;;;;;;4.30;2.70;;;;;;;5.47;88.37;97138.37;108792;1265;22556;-72
2024/02/16 03:46:54;;;;;;;4.20;2.70;;;;;;;5.43;88.25;97140.89;108757;1271;22613;-72
2024/02/16 03:49:27;;;;;;;3.90;2.50;;;;;;;5.42;88.43;97137.80;108716;1271;22548;-72
2024/02/16 03:52:01;;;;;;;4.70;2.70;;;;;;;5.48;88.49;97137.02;108768;1265;23055;-72
2024/02/16 03:54:34;;;;;;;5.90;2.60;;;;;;;5.49;88.27;97136.94;108734;1271;22611;-72
2024/02/16 03:57:12;;;;;;;4.80;2.50;;;;;;;5.49;88.42;97138.11;108747;1268;22524;-72
2024/02/16 03:59:43;;;;;;;4.10;2.60;;;;;;;5.49;88.41;97134.63;108761;1271;22524;-72
2024/02/16 04:02:18;;;;;;;3.20;1.90;;;;;;;5.50;88.46;97131.10;108732;1271;22526;-72
2024/02/16 04:04:49;;;;;;;3.50;2.10;;;;;;;5.55;88.65;97130.09;108736;1271;22682;-72
2024/02/16 04:07:28;;;;;;;4.10;2.20;;;;;;;5.57;88.39;97127.23;108706;1264;22608;-72
2024/02/16 04:10:00;;;;;;;4.00;2.20;;;;;;;5.53;88.15;97128.68;108733;1271;22537;-72
2024/02/16 04:12:33;;;;;;;4.10;2.20;;;;;;;5.52;88.40;97127.36;108739;1268;25416;-72
2024/02/16 04:15:05;;;;;;;2.20;1.60;;;;;;;5.54;88.28;97124.65;108780;1271;22517;-72
2024/02/16 04:17:36;;;;;;;3.80;1.80;;;;;;;5.57;88.43;97119.38;108742;1266;22528;-72
2024/02/16 04:20:13;;;;;;;3.00;1.90;;;;;;;5.59;88.40;97122.64;108780;1271;22645;-72
2024/02/16 04:22:46;;;;;;;2.30;1.60;;;;;;;5.60;88.33;97118.75;108742;1268;23705;-72
2024/02/16 04:25:18;;;;;;;3.30;2.00;;;;;;;5.59;88.22;97121.31;108770;1271;22575;-72
2024/02/16 04:27:52;;;;;;;3.70;1.90;;;;;;;5.59;88.43;97117.38;108695;1268;22527;-73
2024/02/16 04:30:23;;;;;;;2.60;1.80;;;;;;;5.63;88.45;97116.94;108742;1271;22524;-72
2024/02/16 04:32:54;;;;;;;2.60;1.60;;;;;;;5.66;88.46;97115.73;108756;1271;22556;-72
2024/02/16 04:35:25;;;;;;;3.50;1.80;;;;;;;5.66;88.37;97113.89;108747;1271;22585;-72
2024/02/16 04:37:57;;;;;;;2.50;1.70;;;;;;;5.64;88.33;97114.41;108661;1265;26222;-72
2024/02/16 04:40:28;;;;;;;3.10;2.00;;;;;;;5.61;88.25;97116.13;108709;1271;22528;-72
2024/02/16 04:42:59;;;;;;;4.30;1.90;;;;;;;5.61;88.35;97117.98;108713;1265;24592;-72
2024/02/16 04:45:30;;;;;;;3.50;2.00;;;;;;;5.61;88.34;97118.88;108735;1271;22993;-72
2024/02/16 04:48:05;;;;;;;3.60;2.10;;;;;;;5.58;88.34;97120.99;108707;1268;22568;-71
2024/02/16 04:50:38;;;;;;;2.90;1.70;;;;;;;5.55;88.25;97123.09;108740;1266;22557;-72
2024/02/16 04:53:10;;;;;;;3.10;2.10;;;;;;;5.52;88.28;97125.55;108699;1266;22529;-72
2024/02/16 04:55:41;;;;;;;4.10;2.10;;;;;;;5.49;88.23;97127.19;108664;1272;22576;-72
2024/02/16 04:58:12;;;;;;;3.50;1.80;;;;;;;5.49;88.25;97126.52;108631;1268;22528;-72
2024/02/16 05:00:46;;;;;;;3.50;2.00;;;;;;;5.50;88.23;97125.11;108699;1268;22587;-72
2024/02/16 05:03:19;;;;;;;3.10;1.80;;;;;;;5.55;88.62;97127.02;108696;1271;24265;-72
2024/02/16 05:05:51;;;;;;;5.20;2.40;;;;;;;5.56;88.34;97127.33;108774;1271;22555;-72
2024/02/16 05:08:24;;;;;;;4.10;2.50;;;;;;;5.54;88.35;97130.28;108709;1265;22601;-72
2024/02/16 05:10:55;;;;;;;3.60;2.30;;;;;;;5.47;87.92;97133.28;108771;1271;22708;-72
2024/02/16 05:13:26;;;;;;;4.10;2.30;;;;;;;5.43;88.07;97136.56;108773;1272;22592;-72
2024/02/16 05:15:57;;;;;;;3.10;2.30;;;;;;;5.39;88.02;97137.27;108739;1271;22511;-72
2024/02/16 05:18:28;;;;;;;4.00;2.30;;;;;;;5.35;87.92;97135.83;108718;1272;26882;-72
2024/02/16 05:20:59;;;;;;;4.00;2.10;;;;;;;5.34;88.10;97134.98;108755;1272;26442;-72
2024/02/16 05:23:33;;;;;;;2.80;1.80;;;;;;;5.36;88.18;97139.17;108699;1272;22524;-72
2024/02/16 05:26:05;;;;;;;3.70;1.50;;;;;;;5.34;88.17;97137.45;108740;1272;23202;-72
2024/02/16 05:28:37;;;;;;;4.20;2.40;;;;;;;5.41;88.24;97139.11;108720;1264;22523;-72
2024/02/16 05:31:19;;;;;;;4.20;2.00;;;;;;;5.40;88.03;97133.63;108750;1266;22554;-72
2024/02/16 05:33:51;;;;;;;3.10;1.60;;;;;;;5.41;88.50;97134.01;108722;1271;24277;-72
2024/02/16 05:36:27;;;;;;;4.70;2.40;;;;;;;5.48;88.51;97137.17;108731;1271;22517;-72
2024/02/16 05:39:09;;;;;;;3.30;1.80;;;;;;;5.46;88.47;97132.09;108698;1271;22570;-72
2024/02/16 05:41:43;;;;;;;2.30;2.00;;;;;;;5.50;88.76;97135.18;108743;1271;22531;-72
2024/02/16 05:44:14;;;;;;;3.60;1.90;;;;;;;5.58;89.07;97129.52;108774;1265;24130;-72
2024/02/16 05:46:49;;;;;;;2.20;1.60;;;;;;;5.66;89.10;97132.27;108689;1265;22632;-72
2024/02/16 05:49:20;;;;;;;2.70;1.60;;;;;;;5.67;88.92;97132.70;108661;1265;22525;-72
2024/02/16 05:52:17;;;;;;;5.70;1.90;;;;;;;5.69;88.87;97130.35;108761;1268;22606;-72
2024/02/16 05:54:50;;;;;;;2.00;1.60;;;;;;;5.77;89.12;97130.45;108803;1271;22551;-72
2024/02/16 05:57:21;;;;;;;2.90;1.50;;;;;;;5.83;88.96;97131.46;108842;1271;22585;-72
2024/02/16 05:59:54;;;;;;;4.00;2.30;;;;;;;5.88;88.53;97132.08;108865;1268;22522;-72
2024/02/16 06:02:27;;;;;;;3.60;2.00;;;;;;;5.88;88.48;97142.60;108830;1271;23620;-72
2024/02/16 06:04:58;;;;;;;3.10;2.00;;;;;;;5.84;88.18;97146.22;108860;1265;22637;-72
2024/02/16 06:07:30;;;;;;;3.60;2.00;;;;;;;5.80;87.94;97147.77;108821;1271;24910;-72
2024/02/16 06:10:07;;;;;;;3.00;2.20;;;;;;;5.72;87.80;97150.44;108873;1255;22520;-72
2024/02/16 06:12:39;;;;;;;3.90;2.40;;;;;;;5.76;88.05;97153.02;108862;1271;22569;-72
2024/02/16 06:15:11;;;;;;;3.80;2.70;;;;;;;6.11;88.30;97152.43;108816;1268;24333;-72
2024/02/16 06:17:45;;;;;;;2.50;1.80;;;;;;;6.54;87.99;97154.21;108718;1268;26364;-73
2024/02/16 06:20:16;;;;;;;2.40;1.70;;;;;;;6.92;87.61;97148.27;108751;1271;22962;-72
2024/02/16 06:22:47;;;;;;;4.20;2.10;;;;;;;7.17;87.09;97144.41;108764;1268;22514;-72
2024/02/16 06:25:18;;;;;;;2.80;2.30;;;;;;;7.45;86.69;97147.33;108854;1268;24321;-72
2024/02/16 06:27:49;;;;;;;3.40;2.10;;;;;;;7.65;85.91;97153.63;108823;1271;22652;-72
2024/02/16 06:30:21;;;;;;;4.40;2.20;;;;;;;7.88;85.56;97153.63;108876;1271;22545;-72
2024/02/16 06:32:54;;;;;;;3.80;1.90;;;;;;;8.03;84.70;97150.30;108833;1266;25300;-72
2024/02/16 06:35:25;;;;;;;3.90;2.20;;;;;;;8.24;84.20;97152.32;108847;1271;25268;-72
2024/02/16 06:37:58;;;;;;;4.10;2.90;;;;;;;8.38;82.99;97156.66;108831;1268;22523;-72
2024/02/16 06:40:29;;;;;;;3.40;2.30;;;;;;;8.55;82.50;97159.92;108852;1271;25400;-72
2024/02/16 06:43:00;;;;;;;2.60;1.90;;;;;;;8.64;81.72;97158.26;108810;1266;22569;-73
2024/02/16 06:45:31;;;;;;;3.30;2.30;;;;;;;8.68;80.91;97159.45;108819;1271;22518;-73
2024/02/16 06:48:06;;;;;;;4.30;2.20;;;;;;;8.70;80.09;97152.64;108827;1271;22541;-72
2024/02/16 06:50:39;;;;;;;3.00;2.20;;;;;;;8.87;79.92;97156.44;108851;1271;24302;-73
2024/02/16 06:53:12;;;;;;;3.30;2.00;;;;;;;9.20;79.13;97147.45;108716;1269;22537;-73
2024/02/16 06:55:47;;;;;;;3.10;2.40;;;;;;;9.32;77.71;97152.65;108826;1268;22569;-73
2024/02/16 06:58:18;;;;;;;3.10;2.00;;;;;;;9.51;77.25;97155.27;108855;1271;22574;-73
2024/02/16 07:00:52;;;;;;;3.20;2.10;;;;;;;9.57;75.49;97151.13;108788;1265;22636;-73
2024/02/16 07:03:23;;;;;;;3.70;2.20;;;;;;;9.83;75.76;97154.90;108745;1268;22540;-73
2024/02/16 07:05:58;;;;;;;3.50;2.40;;;;;;;10.11;75.41;97158.58;108769;1266;27148;-72
2024/02/16 07:08:29;;;;;;;2.90;2.30;;;;;;;10.32;74.67;97154.83;108832;1268;22582;-73
2024/02/16 07:11:04;;;;;;;3.40;2.50;;;;;;;10.41;73.90;97156.76;108946;1271;24249;-73
2024/02/16 07:13:39;;;;;;;2.60;2.10;;;;;;;10.49;73.56;97157.02;108872;1271;22478;-73
2024/02/16 07:16:11;;;;;;;2.40;1.80;;;;;;;10.75;72.84;97154.55;108853;1271;22568;-73
2024/02/16 07:18:51;;;;;;;2.80;1.90;;;;;;;10.64;71.60;97158.95;108790;1268;22614;-72
2024/02/16 07:21:23;;;;;;;3.20;2.10;;;;;;;10.67;71.38;97157.66;108834;1272;24216;-72
2024/02/16 07:23:54;;;;;;;2.30;1.70;;;;;;;10.75;71.22;97160.70;108823;1271;24306;-72
2024/02/16 07:26:25;;;;;;;3.40;2.10;;;;;;;11.12;71.58;97156.16;108740;1266;22601;-73
2024/02/16 07:28:56;;;;;;;3.30;2.10;;;;;;;11.34;69.60;97156.86;108743;1271;22483;-72
2024/02/16 07:31:31;;;;;;;3.20;2.40;;;;;;;11.10;68.87;97153.34;108776;1272;22534;-74
2024/02/16 07:34:05;;;;;;;3.30;2.40;;;;;;;11.39;69.80;97152.50;108816;1271;22542;-73
2024/02/16 07:36:41;;;;;;;2.40;1.90;;;;;;;11.74;68.34;97150.52;108678;1266;23078;-73
2024/02/16 07:39:14;;;;;;;2.90;2.30;;;;;;;11.63;66.68;97155.19;108801;1268;22522;-74
2024/02/16 07:41:46;;;;;;;2.30;1.90;;;;;;;11.77;67.80;97153.55;108745;1271;22543;-74
2024/02/16 07:44:17;;;;;;;4.00;3.00;;;;;;;12.28;67.56;97151.34;108718;1265;22530;-74
2024/02/16 07:46:50;;;;;;;3.00;2.30;;;;;;;12.63;67.09;97151.59;108684;1272;22531;-74
2024/02/16 07:49:22;;;;;;;3.00;2.30;;;;;;;13.00;66.73;97151.70;108613;1268;22584;-74
2024/02/16 07:51:53;;;;;;;2.80;2.20;;;;;;;13.19;65.20;97149.06;108670;1268;22523;-73
2024/02/16 07:54:26;;;;;;;3.50;2.50;;;;;;;13.12;63.90;97151.45;108627;1268;22510;-73
2024/02/16 07:56:59;;;;;;;2.70;2.20;;;;;;;13.26;64.83;97149.83;108680;1271;22523;-72
2024/02/16 07:59:30;;;;;;;3.80;2.20;;;;;;;13.37;63.28;97138.55;108683;1271;23170;-74
2024/02/16 08:02:02;;;;;;;3.30;2.60;;;;;;;13.31;62.71;97141.33;108727;1271;25311;-74
2024/02/16 08:04:34;;;;;;;3.60;2.70;;;;;;;13.35;62.48;97140.98;108727;1271;22528;-73
2024/02/16 08:07:05;;;;;;;3.30;2.70;;;;;;;12.99;62.60;97137.35;108678;1271;22524;-74
2024/02/16 08:09:40;;;;;;;3.90;2.40;;;;;;;12.34;62.16;97136.46;108732;1271;22557;-74
2024/02/16 08:12:15;;;;;;;3.80;2.60;;;;;;;11.76;62.66;97144.95;108690;1271;22548;-75
2024/02/16 08:14:53;;;;;;;3.20;2.40;;;;;;;11.95;64.31;97139.83;108672;1266;23319;-73
2024/02/16 08:17:24;;;;;;;3.40;2.40;;;;;;;12.42;63.78;97140.04;108537;1265;22533;-75
2024/02/16 08:19:56;;;;;;;5.50;2.50;;;;;;;12.71;63.16;97142.39;108563;1266;22518;-73
2024/02/16 08:22:30;;;;;;;3.40;2.30;;;;;;;12.88;62.27;97139.64;108639;1266;22617;-74
2024/02/16 08:25:04;;;;;;;4.10;2.60;;;;;;;13.16;62.41;97143.12;108730;1271;22528;-74
2024/02/16 08:27:39;;;;;;;5.50;3.40;;;;;;;13.38;62.01;97146.74;108731;1269;22520;-74
2024/02/16 08:30:12;;;;;;;3.60;2.50;;;;;;;13.49;61.95;97145.02;108711;1271;25353;-75
2024/02/16 08:32:45;;;;;;;3.30;2.40;;;;;;;13.62;60.42;97139.29;108800;1271;22526;-74
2024/02/16 08:35:19;;;;;;;3.40;2.40;;;;;;;13.49;60.43;97141.88;108733;1271;22541;-75
2024/02/16 08:37:51;;;;;;;3.40;2.30;;;;;;;13.50;60.87;97145.08;108804;1271;22525;-74
2024/02/16 08:40:24;;;;;;;2.80;2.20;;;;;;;13.69;60.89;97141.92;108735;1271;24249;-75
2024/02/16 08:42:55;;;;;;;2.70;1.70;;;;;;;13.50;60.23;97143.84;108736;1266;22524;-76
2024/02/16 08:45:26;;;;;;;2.60;1.90;;;;;;;12.90;60.45;97144.51;108722;1265;25067;-75
2024/02/16 08:47:58;;;;;;;3.20;1.70;;;;;;;12.75;61.31;97147.94;108482;1268;22592;-73
2024/02/16 08:50:29;;;;;;;2.70;1.90;;;;;;;12.54;60.94;97147.61;108277;1267;25353;-74
2024/02/16 08:53:00;;;;;;;2.90;1.60;;;;;;;12.68;61.69;97146.45;108604;1267;22536;-77
2024/02/16 08:55:31;;;;;;;2.70;1.80;;;;;;;12.18;60.48;97143.64;108742;1255;22531;-76
2024/02/16 08:58:02;;;;;;;3.60;1.80;;;;;;;11.85;61.86;97147.08;108647;1271;22525;-73
2024/02/16 09:00:35;;;;;;;4.20;2.30;;;;;;;11.71;62.17;97147.11;108649;1272;22522;-73
2024/02/16 09:03:10;;;;;;;2.60;1.90;;;;;;;11.64;63.05;97144.35;108729;1271;22712;-72
2024/02/16 09:05:44;;;;;;;3.10;2.40;;;;;;;11.51;63.16;97142.86;108688;1266;22515;-73
2024/02/16 09:08:20;;;;;;;3.70;1.90;;;;;;;11.21;63.60;97146.07;108706;1272;23843;-73
2024/02/16 09:10:51;;;;;;;2.80;1.50;;;;;;;11.10;63.89;97147.31;108736;1266;25243;-74
2024/02/16 09:13:28;;;;;;;4.30;2.50;;;;;;;10.76;63.64;97141.72;108652;1268;22528;-74
2024/02/16 09:16:00;;;;;;;3.20;1.50;;;;;;;10.51;64.66;97144.09;108610;1268;22524;-73
2024/02/16 09:18:34;;;;;;;4.60;2.70;;;;;;;10.34;65.14;97144.08;108558;1270;24905;-73
2024/02/16 09:21:08;;;;;;;5.10;2.10;;;;;;;10.36;65.97;97144.56;108745;1271;22531;-74
2024/02/16 09:23:43;;;;;;;3.00;1.90;;;;;;;10.47;66.54;97146.90;108778;1271;26425;-74
2024/02/16 09:26:14;;;;;;;3.60;2.30;;;;;;;10.55;66.36;97145.11;108776;1271;23224;-74
2024/02/16 09:28:48;;;;;;;4.00;2.20;;;;;;;10.47;66.48;97143.41;108579;1266;25439;-74
2024/02/16 09:31:22;;;;;;;6.20;1.90;;;;;;;10.46;66.64;97146.17;108737;1265;22537;-74
2024/02/16 09:33:54;;;;;;;3.20;1.40;;;;;;;10.41;66.72;97149.59;108774;1267;22526;-74
2024/02/16 09:36:25;;;;;;;3.90;1.70;;;;;;;10.50;67.26;97146.75;108767;1265;22524;-74
2024/02/16 09:38:58;;;;;;;3.30;2.30;;;;;;;10.67;67.34;97146.43;108688;1271;22540;-74
2024/02/16 09:41:29;;;;;;;3.50;2.00;;;;;;;10.82;67.72;97146.02;108694;1267;22525;-74
2024/02/16 09:44:03;;;;;;;7.10;2.10;;;;;;;11.03;67.74;97142.27;108736;1269;24246;-74
2024/02/16 09:46:43;;;;;;;3.90;2.40;;;;;;;11.09;67.40;97143.48;108821;1271;22535;-73
2024/02/16 09:49:17;;;;;;;3.40;2.00;;;;;;;11.23;67.88;97147.88;108661;1266;22532;-74
2024/02/16 09:51:55;;;;;;;4.00;2.10;;;;;;;11.45;67.66;97147.40;108747;1269;25445;-74
2024/02/16 09:54:27;;;;;;;5.20;2.20;;;;;;;11.49;67.03;97144.66;108565;1267;25425;-74
2024/02/16 09:57:02;;;;;;;3.20;1.90;;;;;;;11.52;66.91;97147.56;108778;1268;22555;-73
2024/02/16 09:59:34;;;;;;;2.00;1.40;;;;;;;11.52;66.63;97149.64;108739;1269;24231;-74
2024/02/16 10:02:09;;;;;;;2.00;1.60;;;;;;;11.58;66.67;97152.45;108723;1271;22547;-74
2024/02/16 10:04:42;;;;;;;3.30;1.80;;;;;;;11.72;66.53;97146.98;108720;1249;22543;-75
2024/02/16 10:07:14;;;;;;;3.60;1.90;;;;;;;11.71;66.23;97148.37;108773;1268;22539;-75
2024/02/16 10:09:45;;;;;;;1.80;1.20;;;;;;;11.82;66.53;97145.64;108681;1271;25376;-75
2024/02/16 10:12:22;;;;;;;2.90;1.80;;;;;;;11.93;66.22;97143.93;108723;1271;22528;-75
2024/02/16 10:15:04;;;;;;;3.10;1.80;;;;;;;11.96;66.17;97148.39;108771;1271;22550;-75
2024/02/16 10:17:38;;;;;;;4.20;1.90;;;;;;;12.13;66.12;97141.13;108674;1272;24502;-75
2024/02/16 10:20:21;;;;;;;2.30;1.60;;;;;;;12.36;66.56;97136.79;108805;1268;22531;-75
2024/02/16 10:23:13;;;;;;;2.10;1.30;;;;;;;12.54;66.22;97136.92;108856;1268;24280;-75
2024/02/16 10:25:46;;;;;;;2.60;1.70;;;;;;;12.66;66.10;97135.18;108748;1271;22531;-76
2024/02/16 10:28:27;;;;;;;3.00;1.70;;;;;;;12.77;65.70;97135.77;108758;1266;22523;-75
2024/02/16 10:31:02;;;;;;;3.20;2.20;;;;;;;12.69;64.85;97132.88;108751;1266;22603;-74
2024/02/16 10:33:38;;;;;;;2.20;1.50;;;;;;;12.68;64.99;97130.48;108835;1271;22660;-74
2024/02/16 10:36:14;;;;;;;1.60;1.40;;;;;;;12.72;64.62;97128.42;108855;1268;22531;-74
2024/02/16 10:38:53;;;;;;;1.80;1.40;;;;;;;12.80;64.33;97124.85;108864;1271;22555;-74
2024/02/16 10:41:27;;;;;;;3.00;1.50;;;;;;;12.89;64.31;97122.59;108854;1271;25548;-74
2024/02/16 10:44:00;;;;;;;1.80;1.20;;;;;;;12.93;64.16;97118.61;108726;1271;22527;-74
2024/02/16 10:46:31;;;;;;;2.20;1.50;;;;;;;12.96;63.93;97110.35;108700;1271;22520;-74
2024/02/16 10:49:05;;;;;;;3.20;1.80;;;;;;;13.05;63.83;97105.50;108613;1268;22540;-74
2024/02/16 10:51:42;;;;;;;2.20;1.50;;;;;;;12.99;62.82;97102.55;108723;1268;22536;-74
2024/02/16 10:54:19;;;;;;;2.10;1.30;;;;;;;12.95;63.01;97101.83;108701;1268;22531;-75
2024/02/16 10:56:56;;;;;;;1.40;1.10;;;;;;;12.99;62.93;97094.71;108721;1271;22520;-74
2024/02/16 10:59:28;;;;;;;3.50;1.80;;;;;;;13.03;61.72;97097.13;108689;1271;22541;-74
2024/02/16 11:02:07;;;;;;;3.60;1.30;;;;;;;12.98;61.78;97098.78;108799;1270;22562;-74
2024/02/16 11:04:42;;;;;;;2.50;1.30;;;;;;;12.99;61.41;97090.09;108782;1268;22527;-74
2024/02/16 11:07:25;;;;;;;4.90;1.80;;;;;;;12.99;60.74;97091.36;108782;1270;22541;-74
2024/02/16 11:10:00;;;;;;;2.80;1.30;;;;;;;13.10;61.29;97090.14;108664;1271;22546;-74
2024/02/16 11:12:38;;;;;;;1.90;1.20;;;;;;;13.14;60.94;97089.56;108711;1266;25380;-74
2024/02/16 11:15:14;;;;;;;1.40;1.30;;;;;;;13.23;60.93;97085.02;108769;1271;22532;-74
2024/02/16 11:17:46;;;;;;;2.40;1.40;;;;;;;13.37;61.46;97086.35;108963;1271;22527;-74
2024/02/16 11:20:19;;;;;;;1.70;1.00;;;;;;;13.59;61.67;97080.17;108685;1271;22989;-73
2024/02/16 11:22:56;;;;;;;1.80;1.10;;;;;;;13.72;60.86;97080.45;108782;1271;22569;-74
2024/02/16 11:25:37;;;;;;;1.30;1.10;;;;;;;13.66;60.31;97077.05;108736;1269;22529;-74
2024/02/16 11:28:11;;;;;;;1.90;1.40;;;;;;;13.60;59.71;97075.95;108733;1269;22555;-74
2024/02/16 11:30:43;;;;;;;2.80;1.70;;;;;;;13.61;59.72;97072.41;108708;1268;22695;-74
2024/02/16 11:33:15;;;;;;;3.80;1.70;;;;;;;13.62;59.77;97069.85;108718;1271;25290;-74
2024/02/16 11:35:55;;;;;;;3.40;1.60;;;;;;;13.69;59.69;97067.74;108742;1271;24491;-73
2024/02/16 11:38:35;;;;;;;2.00;1.50;;;;;;;13.71;59.51;97063.83;108703;1271;25300;-73
2024/02/16 11:41:08;;;;;;;2.90;1.70;;;;;;;13.77;59.65;97062.20;108676;1271;23021;-73
2024/02/16 11:43:42;;;;;;;3.30;1.70;;;;;;;13.85;59.50;97056.88;108756;1271;25425;-74
2024/02/16 11:46:28;;;;;;;2.60;1.70;;;;;;;13.90;59.44;97055.93;108662;1268;22524;-74
2024/02/16 11:49:08;;;;;;;2.30;1.80;;;;;;;13.91;58.98;97052.61;108763;1271;22523;-74
2024/02/16 11:51:42;;;;;;;4.00;2.20;;;;;;;13.97;59.11;97049.41;108690;1270;22574;-74
2024/02/16 11:54:23;;;;;;;2.90;1.70;;;;;;;13.99;58.74;97049.54;108756;1269;22643;-74
2024/02/16 11:56:58;;;;;;;2.10;1.50;;;;;;;14.02;58.55;97044.58;108769;1271;22971;-75